Time;durP1;ratioP1;P1;durP2;ratioP2;P2;SDS_P1;SDS_P2;PMS_P1;PMS_P2;Temp;Humidity;BMP_temperature;BMP_pressure;BME280_temperature;BME280_humidity;BME280_pressure;Samples;Min_cycle;Max_cycle;Signal;HPM_P1;HPM_P2
2023/05/27 00:00:42;;;;;;;16.00;9.20;;;;;;;-128.00;-1.00;-1.00;105580;1251;1055694;-75
2023/05/27 00:03:28;;;;;;;18.70;9.20;;;;;;;-128.00;-1.00;-1.00;105714;1251;1058441;-76
2023/05/27 00:05:55;;;;;;;12.80;8.50;;;;;;;-128.00;-1.00;-1.00;105718;1251;1004774;-75
2023/05/27 00:08:21;;;;;;;13.20;9.00;;;;;;;-128.00;-1.00;-1.00;105783;1251;1004750;-76
2023/05/27 00:10:48;;;;;;;14.90;8.90;;;;;;;-128.00;-1.00;-1.00;105730;1251;1003479;-76
2023/05/27 00:13:14;;;;;;;17.50;8.80;;;;;;;-128.00;-1.00;-1.00;105708;1251;1004544;-75
2023/05/27 00:15:41;;;;;;;16.00;9.20;;;;;;;-128.00;-1.00;-1.00;105728;1251;1004248;-77
2023/05/27 00:18:09;;;;;;;14.00;9.20;;;;;;;-128.00;-1.00;-1.00;105735;1251;1004254;-76
2023/05/27 00:20:35;;;;;;;19.80;10.50;;;;;;;-128.00;-1.00;-1.00;105704;1251;1004503;-76
2023/05/27 00:23:02;;;;;;;16.20;9.20;;;;;;;-128.00;-1.00;-1.00;105769;1251;1003244;-76
2023/05/27 00:25:28;;;;;;;15.90;9.20;;;;;;;-128.00;-1.00;-1.00;105722;1251;1004415;-76
2023/05/27 00:27:55;;;;;;;14.80;9.50;;;;;;;-128.00;-1.00;-1.00;105657;1251;1006305;-76
2023/05/27 00:30:22;;;;;;;13.40;9.00;;;;;;;-128.00;-1.00;-1.00;105713;1251;1004424;-76
2023/05/27 00:32:49;;;;;;;16.90;9.70;;;;;;;-128.00;-1.00;-1.00;105770;1251;1004973;-76
2023/05/27 00:35:15;;;;;;;18.90;10.40;;;;;;;-128.00;-1.00;-1.00;105756;1251;1004476;-77
2023/05/27 00:37:42;;;;;;;14.80;9.30;;;;;;;-128.00;-1.00;-1.00;105719;1251;1003844;-76
2023/05/27 00:40:11;;;;;;;18.00;10.20;;;;;;;-128.00;-1.00;-1.00;105695;1251;1007088;-77
2023/05/27 00:42:38;;;;;;;18.60;9.40;;;;;;;-128.00;-1.00;-1.00;105408;1251;1045916;-76
2023/05/27 00:45:05;;;;;;;17.90;9.20;;;;;;;-128.00;-1.00;-1.00;105741;1251;1004119;-76
2023/05/27 00:47:33;;;;;;;14.10;9.10;;;;;;;-128.00;-1.00;-1.00;105727;1251;1004809;-77
2023/05/27 00:50:00;;;;;;;16.20;9.00;;;;;;;-128.00;-1.00;-1.00;105739;1251;1004350;-77
2023/05/27 00:52:27;;;;;;;14.00;9.40;;;;;;;-128.00;-1.00;-1.00;105697;1251;1003382;-77
2023/05/27 00:54:56;;;;;;;17.60;9.00;;;;;;;-128.00;-1.00;-1.00;105661;1251;1003357;-77
2023/05/27 00:57:22;;;;;;;14.60;8.80;;;;;;;-128.00;-1.00;-1.00;105413;1251;1047831;-77
2023/05/27 00:59:49;;;;;;;16.00;9.10;;;;;;;-128.00;-1.00;-1.00;105730;1251;1004437;-76
2023/05/27 01:02:15;;;;;;;14.40;8.70;;;;;;;-128.00;-1.00;-1.00;105725;1251;1003555;-76
2023/05/27 01:04:42;;;;;;;18.20;8.50;;;;;;;-128.00;-1.00;-1.00;105699;1251;1004426;-76
2023/05/27 01:07:28;;;;;;;15.80;9.10;;;;;;;-128.00;-1.00;-1.00;105721;1251;1004959;-76
2023/05/27 01:10:10;;;;;;;14.50;8.20;;;;;;;-128.00;-1.00;-1.00;105668;1251;1046166;-76
2023/05/27 01:12:49;;;;;;;10.20;7.70;;;;;;;-128.00;-1.00;-1.00;105585;1251;1063222;-76
2023/05/27 01:15:18;;;;;;;13.30;8.40;;;;;;;-128.00;-1.00;-1.00;105701;1251;1055440;-76
2023/05/27 01:17:47;;;;;;;12.90;8.20;;;;;;;-128.00;-1.00;-1.00;105714;1251;1059163;-76
2023/05/27 01:20:14;;;;;;;15.40;8.40;;;;;;;-128.00;-1.00;-1.00;105695;1251;1046226;-76
2023/05/27 01:22:42;;;;;;;16.30;9.00;;;;;;;-128.00;-1.00;-1.00;105742;1251;1004368;-76
2023/05/27 01:25:10;;;;;;;16.90;8.50;;;;;;;-128.00;-1.00;-1.00;105728;1251;1003937;-75
2023/05/27 01:27:40;;;;;;;17.40;8.90;;;;;;;-128.00;-1.00;-1.00;105559;1257;1003886;-77
2023/05/27 01:30:07;;;;;;;16.50;8.30;;;;;;;-128.00;-1.00;-1.00;105658;1251;1059571;-77
2023/05/27 01:32:55;;;;;;;13.40;8.80;;;;;;;-128.00;-1.00;-1.00;105717;1251;1004762;-77
2023/05/27 01:35:44;;;;;;;15.90;8.00;;;;;;;-128.00;-1.00;-1.00;105692;1251;1046654;-77
2023/05/27 01:38:17;;;;;;;15.20;8.70;;;;;;;-128.00;-1.00;-1.00;105745;1251;1061999;-77
2023/05/27 01:40:45;;;;;;;15.70;9.00;;;;;;;-128.00;-1.00;-1.00;105729;1251;1055102;-76
2023/05/27 01:43:13;;;;;;;13.60;8.10;;;;;;;-128.00;-1.00;-1.00;105691;1251;1004207;-77
2023/05/27 01:45:42;;;;;;;11.10;7.30;;;;;;;-128.00;-1.00;-1.00;105674;1251;1004116;-77
2023/05/27 01:48:11;;;;;;;14.10;8.70;;;;;;;-128.00;-1.00;-1.00;105562;1251;1003527;-77
2023/05/27 01:50:38;;;;;;;19.20;9.80;;;;;;;-128.00;-1.00;-1.00;105826;1251;1063551;-77
2023/05/27 01:53:05;;;;;;;12.50;9.00;;;;;;;-128.00;-1.00;-1.00;105767;1251;1003448;-77
2023/05/27 01:55:32;;;;;;;14.20;8.80;;;;;;;-128.00;-1.00;-1.00;105728;1251;1003936;-77
2023/05/27 01:57:58;;;;;;;15.80;8.70;;;;;;;-128.00;-1.00;-1.00;105816;1251;1004798;-77
2023/05/27 02:00:34;;;;;;;17.00;9.60;;;;;;;-128.00;-1.00;-1.00;105843;1251;1003647;-76
2023/05/27 02:03:00;;;;;;;13.30;10.00;;;;;;;-128.00;-1.00;-1.00;105816;1251;1062090;-77
2023/05/27 02:05:27;;;;;;;17.10;9.90;;;;;;;-128.00;-1.00;-1.00;105850;1251;1003639;-77
2023/05/27 02:07:53;;;;;;;15.70;9.70;;;;;;;-128.00;-1.00;-1.00;105800;1251;1004124;-77
2023/05/27 02:10:20;;;;;;;14.40;9.80;;;;;;;-128.00;-1.00;-1.00;105595;1251;1004143;-76
2023/05/27 02:12:47;;;;;;;13.50;9.40;;;;;;;-128.00;-1.00;-1.00;105733;1251;1004732;-76
2023/05/27 02:15:14;;;;;;;17.90;10.50;;;;;;;-128.00;-1.00;-1.00;105688;1251;1004109;-76
2023/05/27 02:17:44;;;;;;;17.70;10.60;;;;;;;-128.00;-1.00;-1.00;105782;1251;1004106;-77
2023/05/27 02:20:11;;;;;;;16.60;10.60;;;;;;;-128.00;-1.00;-1.00;105720;1251;1059251;-77
2023/05/27 02:22:37;;;;;;;17.00;10.00;;;;;;;-128.00;-1.00;-1.00;105678;1251;1005085;-77
2023/05/27 02:25:05;;;;;;;14.60;9.50;;;;;;;-128.00;-1.00;-1.00;105706;1251;1004444;-76
2023/05/27 02:27:31;;;;;;;16.60;10.00;;;;;;;-128.00;-1.00;-1.00;105700;1251;1003960;-77
2023/05/27 02:29:58;;;;;;;17.70;10.00;;;;;;;-128.00;-1.00;-1.00;105778;1251;1004216;-76
2023/05/27 02:32:24;;;;;;;16.60;10.40;;;;;;;-128.00;-1.00;-1.00;105697;1251;1004680;-77
2023/05/27 02:34:51;;;;;;;14.30;10.40;;;;;;;-128.00;-1.00;-1.00;105713;1251;1004448;-77
2023/05/27 02:37:18;;;;;;;13.60;11.20;;;;;;;-128.00;-1.00;-1.00;105728;1251;1003738;-77
2023/05/27 02:39:44;;;;;;;18.40;12.90;;;;;;;-128.00;-1.00;-1.00;105780;1251;1004731;-77
2023/05/27 02:42:11;;;;;;;22.80;13.50;;;;;;;-128.00;-1.00;-1.00;105723;1251;1004467;-77
2023/05/27 02:44:37;;;;;;;19.30;14.20;;;;;;;-128.00;-1.00;-1.00;105730;1251;1003921;-76
2023/05/27 02:47:04;;;;;;;22.00;14.50;;;;;;;-128.00;-1.00;-1.00;105574;1251;1003687;-77
2023/05/27 02:49:30;;;;;;;24.30;14.10;;;;;;;-128.00;-1.00;-1.00;105694;1251;1004067;-76
2023/05/27 02:51:57;;;;;;;22.10;14.00;;;;;;;-128.00;-1.00;-1.00;105774;1251;1003867;-76
2023/05/27 02:54:23;;;;;;;21.60;13.50;;;;;;;-128.00;-1.00;-1.00;105725;1251;1004085;-76
2023/05/27 02:56:50;;;;;;;21.10;13.40;;;;;;;-128.00;-1.00;-1.00;105709;1251;1004233;-77
2023/05/27 02:59:16;;;;;;;19.70;12.60;;;;;;;-128.00;-1.00;-1.00;105690;1251;1004281;-76
2023/05/27 03:01:43;;;;;;;19.10;12.20;;;;;;;-128.00;-1.00;-1.00;105729;1251;1004293;-76
2023/05/27 03:04:10;;;;;;;25.30;13.70;;;;;;;-128.00;-1.00;-1.00;105706;1251;1003783;-76
2023/05/27 03:06:36;;;;;;;21.50;12.80;;;;;;;-128.00;-1.00;-1.00;105438;1251;1005674;-76
2023/05/27 03:09:04;;;;;;;18.50;12.90;;;;;;;-128.00;-1.00;-1.00;105721;1251;1005000;-76
2023/05/27 03:11:30;;;;;;;17.90;11.50;;;;;;;-128.00;-1.00;-1.00;105663;1251;1004351;-76
2023/05/27 03:13:56;;;;;;;20.20;12.10;;;;;;;-128.00;-1.00;-1.00;105765;1251;1004308;-76
2023/05/27 03:16:24;;;;;;;18.90;11.80;;;;;;;-128.00;-1.00;-1.00;105697;1251;1004109;-76
2023/05/27 03:18:51;;;;;;;17.20;10.90;;;;;;;-128.00;-1.00;-1.00;105732;1251;1004198;-76
2023/05/27 03:21:17;;;;;;;17.70;10.80;;;;;;;-128.00;-1.00;-1.00;105657;1251;1005217;-76
2023/05/27 03:23:44;;;;;;;17.30;10.70;;;;;;;-128.00;-1.00;-1.00;105713;1251;1004496;-75
2023/05/27 03:26:11;;;;;;;20.90;9.90;;;;;;;-128.00;-1.00;-1.00;105701;1252;1003999;-75
2023/05/27 03:28:38;;;;;;;19.60;9.20;;;;;;;-128.00;-1.00;-1.00;105752;1251;1003644;-76
2023/05/27 03:31:05;;;;;;;21.40;9.20;;;;;;;-128.00;-1.00;-1.00;105668;1251;1004707;-75
2023/05/27 03:33:31;;;;;;;21.60;9.30;;;;;;;-128.00;-1.00;-1.00;105738;1251;1003943;-75
2023/05/27 03:35:58;;;;;;;17.10;8.50;;;;;;;-128.00;-1.00;-1.00;105697;1251;1003849;-76
2023/05/27 03:38:24;;;;;;;15.10;8.20;;;;;;;-128.00;-1.00;-1.00;105762;1251;1003711;-76
2023/05/27 03:40:51;;;;;;;19.70;9.90;;;;;;;-128.00;-1.00;-1.00;105726;1251;1004364;-76
2023/05/27 03:43:17;;;;;;;19.20;9.70;;;;;;;-128.00;-1.00;-1.00;105678;1251;1003997;-76
2023/05/27 03:45:44;;;;;;;18.90;9.50;;;;;;;-128.00;-1.00;-1.00;105729;1251;1003866;-76
2023/05/27 03:48:10;;;;;;;21.90;9.30;;;;;;;-128.00;-1.00;-1.00;105736;1251;1004023;-76
2023/05/27 03:50:37;;;;;;;16.30;9.10;;;;;;;-128.00;-1.00;-1.00;105748;1251;1004471;-76
2023/05/27 03:53:03;;;;;;;17.40;9.70;;;;;;;-128.00;-1.00;-1.00;105721;1251;1005341;-77
2023/05/27 03:55:30;;;;;;;21.00;9.40;;;;;;;-128.00;-1.00;-1.00;105743;1251;1004022;-76
2023/05/27 03:57:56;;;;;;;16.30;9.40;;;;;;;-128.00;-1.00;-1.00;105689;1251;1003790;-77
2023/05/27 04:00:23;;;;;;;16.60;9.90;;;;;;;-128.00;-1.00;-1.00;105779;1251;1004878;-76
2023/05/27 04:02:49;;;;;;;17.70;9.80;;;;;;;-128.00;-1.00;-1.00;105661;1251;1004068;-76
2023/05/27 04:05:16;;;;;;;17.80;9.60;;;;;;;-128.00;-1.00;-1.00;105713;1251;1004505;-75
2023/05/27 04:07:43;;;;;;;15.90;9.50;;;;;;;-128.00;-1.00;-1.00;105743;1251;1003765;-75
2023/05/27 04:10:10;;;;;;;15.80;8.40;;;;;;;-128.00;-1.00;-1.00;105718;1251;1004052;-77
2023/05/27 04:12:40;;;;;;;15.80;8.30;;;;;;;-128.00;-1.00;-1.00;105765;1251;1004468;-76
2023/05/27 04:15:08;;;;;;;15.60;8.80;;;;;;;-128.00;-1.00;-1.00;105739;1251;1047779;-76
2023/05/27 04:17:35;;;;;;;13.70;8.10;;;;;;;-128.00;-1.00;-1.00;105744;1251;1003461;-77
2023/05/27 04:20:10;;;;;;;17.00;8.70;;;;;;;-128.00;-1.00;-1.00;105733;1251;1004185;-76
2023/05/27 04:22:37;;;;;;;14.80;8.50;;;;;;;-128.00;-1.00;-1.00;105744;1251;1060283;-76
2023/05/27 04:25:04;;;;;;;14.40;7.90;;;;;;;-128.00;-1.00;-1.00;105712;1251;1003299;-76
2023/05/27 04:27:30;;;;;;;15.90;8.10;;;;;;;-128.00;-1.00;-1.00;105775;1251;1003998;-76
2023/05/27 04:29:57;;;;;;;18.80;8.00;;;;;;;-128.00;-1.00;-1.00;105748;1251;1005058;-76
2023/05/27 04:32:24;;;;;;;14.40;8.30;;;;;;;-128.00;-1.00;-1.00;105692;1251;1004295;-77
2023/05/27 04:34:51;;;;;;;13.90;7.70;;;;;;;-128.00;-1.00;-1.00;105749;1251;1004363;-76
2023/05/27 04:37:19;;;;;;;12.10;7.70;;;;;;;-128.00;-1.00;-1.00;105712;1251;1004499;-76
2023/05/27 04:39:46;;;;;;;13.50;7.10;;;;;;;-128.00;-1.00;-1.00;105444;1251;1004178;-77
2023/05/27 04:42:15;;;;;;;12.80;7.50;;;;;;;-128.00;-1.00;-1.00;105624;1251;1004630;-77
2023/05/27 04:44:41;;;;;;;14.70;6.90;;;;;;;-128.00;-1.00;-1.00;105684;1251;1056554;-77
2023/05/27 04:47:08;;;;;;;12.80;7.00;;;;;;;-128.00;-1.00;-1.00;105421;1251;1004213;-77
2023/05/27 04:49:34;;;;;;;11.30;7.00;;;;;;;-128.00;-1.00;-1.00;105702;1251;1003869;-76
2023/05/27 04:52:01;;;;;;;13.50;6.30;;;;;;;-128.00;-1.00;-1.00;105758;1251;1003748;-77
2023/05/27 04:54:27;;;;;;;12.50;6.50;;;;;;;-128.00;-1.00;-1.00;105719;1251;1004229;-77
2023/05/27 04:56:54;;;;;;;9.70;6.10;;;;;;;-128.00;-1.00;-1.00;105590;1251;1004322;-76
2023/05/27 04:59:22;;;;;;;12.50;6.20;;;;;;;-128.00;-1.00;-1.00;105714;1251;1003719;-76
2023/05/27 05:04:36;;;;;;;13.50;6.00;;;;;;;-128.00;-1.00;-1.00;105759;1251;1048322;-77
2023/05/27 05:07:03;;;;;;;12.40;6.40;;;;;;;-128.00;-1.00;-1.00;105457;1251;1063664;-77
2023/05/27 05:09:30;;;;;;;9.90;5.90;;;;;;;-128.00;-1.00;-1.00;105733;1251;1004063;-77
2023/05/27 05:11:56;;;;;;;12.40;5.50;;;;;;;-128.00;-1.00;-1.00;105714;1251;1004588;-77
2023/05/27 05:14:23;;;;;;;9.60;5.70;;;;;;;-128.00;-1.00;-1.00;105609;1251;1004490;-77
2023/05/27 05:16:49;;;;;;;11.70;5.70;;;;;;;-128.00;-1.00;-1.00;105736;1251;1004899;-77
2023/05/27 05:19:16;;;;;;;14.70;6.20;;;;;;;-128.00;-1.00;-1.00;105725;1251;1004703;-77
2023/05/27 05:21:42;;;;;;;13.30;5.90;;;;;;;-128.00;-1.00;-1.00;105743;1251;1006255;-77
2023/05/27 05:24:09;;;;;;;13.50;5.50;;;;;;;-128.00;-1.00;-1.00;105649;1251;1004369;-77
2023/05/27 05:26:35;;;;;;;12.10;5.50;;;;;;;-128.00;-1.00;-1.00;105750;1251;1004282;-77
2023/05/27 05:29:02;;;;;;;11.00;6.60;;;;;;;-128.00;-1.00;-1.00;105769;1251;1003746;-77
2023/05/27 05:31:28;;;;;;;11.10;5.50;;;;;;;-128.00;-1.00;-1.00;105746;1251;1004975;-77
2023/05/27 05:33:55;;;;;;;12.10;5.50;;;;;;;-128.00;-1.00;-1.00;105692;1251;1004655;-77
2023/05/27 05:36:22;;;;;;;10.20;5.80;;;;;;;-128.00;-1.00;-1.00;105708;1251;1004551;-76
2023/05/27 05:38:49;;;;;;;13.10;5.60;;;;;;;-128.00;-1.00;-1.00;105740;1251;1004752;-76
2023/05/27 05:41:16;;;;;;;11.00;5.40;;;;;;;-128.00;-1.00;-1.00;105719;1251;1004549;-76
2023/05/27 05:43:42;;;;;;;7.90;5.30;;;;;;;-128.00;-1.00;-1.00;105777;1251;1004602;-76
2023/05/27 05:46:09;;;;;;;10.70;5.90;;;;;;;-128.00;-1.00;-1.00;105745;1251;1004218;-76
2023/05/27 05:48:35;;;;;;;10.70;5.70;;;;;;;-128.00;-1.00;-1.00;105714;1251;1004677;-80
2023/05/27 05:51:02;;;;;;;9.70;6.10;;;;;;;-128.00;-1.00;-1.00;105504;1251;1004756;-76
2023/05/27 05:53:28;;;;;;;9.50;5.10;;;;;;;-128.00;-1.00;-1.00;105750;1251;1004286;-77
2023/05/27 05:55:55;;;;;;;10.60;5.00;;;;;;;-128.00;-1.00;-1.00;105777;1251;1003466;-77
2023/05/27 05:58:21;;;;;;;9.30;5.20;;;;;;;-128.00;-1.00;-1.00;105778;1251;1004269;-77
2023/05/27 06:00:48;;;;;;;11.10;5.50;;;;;;;-128.00;-1.00;-1.00;105735;1251;1004481;-77
2023/05/27 06:03:14;;;;;;;8.90;5.20;;;;;;;-128.00;-1.00;-1.00;105716;1251;1003739;-77
2023/05/27 06:05:41;;;;;;;14.50;5.80;;;;;;;-128.00;-1.00;-1.00;105763;1251;1004119;-77
2023/05/27 06:08:07;;;;;;;10.90;5.70;;;;;;;-128.00;-1.00;-1.00;105714;1251;1004074;-77
2023/05/27 06:10:34;;;;;;;14.60;5.80;;;;;;;-128.00;-1.00;-1.00;105709;1251;1004984;-77
2023/05/27 06:13:01;;;;;;;12.60;5.10;;;;;;;-128.00;-1.00;-1.00;105417;1251;1004853;-77
2023/05/27 06:15:27;;;;;;;10.00;5.30;;;;;;;-128.00;-1.00;-1.00;105697;1251;1003224;-77
2023/05/27 06:17:54;;;;;;;10.30;5.00;;;;;;;-128.00;-1.00;-1.00;105580;1251;1004216;-77
2023/05/27 06:20:22;;;;;;;9.20;4.80;;;;;;;-128.00;-1.00;-1.00;105751;1251;1004075;-77
2023/05/27 06:22:49;;;;;;;10.30;5.00;;;;;;;-128.00;-1.00;-1.00;105699;1251;1004729;-78
2023/05/27 06:25:15;;;;;;;11.90;5.60;;;;;;;-128.00;-1.00;-1.00;105737;1251;1004867;-77
2023/05/27 06:27:42;;;;;;;9.30;4.70;;;;;;;-128.00;-1.00;-1.00;105698;1251;1004369;-76
2023/05/27 06:30:08;;;;;;;11.40;5.50;;;;;;;-128.00;-1.00;-1.00;105737;1251;1004596;-76
2023/05/27 06:32:35;;;;;;;10.20;5.00;;;;;;;-128.00;-1.00;-1.00;105752;1251;1004213;-75
2023/05/27 06:35:01;;;;;;;13.10;5.40;;;;;;;-128.00;-1.00;-1.00;105713;1251;1004184;-77
2023/05/27 06:37:30;;;;;;;10.10;4.80;;;;;;;-128.00;-1.00;-1.00;105681;1251;1059432;-77
2023/05/27 06:39:57;;;;;;;11.80;5.60;;;;;;;-128.00;-1.00;-1.00;105713;1251;1004622;-77
2023/05/27 06:42:23;;;;;;;12.20;5.10;;;;;;;-128.00;-1.00;-1.00;105732;1251;1004130;-77
2023/05/27 06:44:50;;;;;;;9.60;5.20;;;;;;;-128.00;-1.00;-1.00;105736;1251;1003475;-77
2023/05/27 06:47:16;;;;;;;10.80;5.30;;;;;;;-128.00;-1.00;-1.00;105729;1251;1003709;-77
2023/05/27 06:49:43;;;;;;;11.60;5.50;;;;;;;-128.00;-1.00;-1.00;105602;1251;1004433;-77
2023/05/27 06:52:09;;;;;;;8.70;4.00;;;;;;;-128.00;-1.00;-1.00;105794;1251;1004663;-77
2023/05/27 06:54:36;;;;;;;9.20;4.80;;;;;;;-128.00;-1.00;-1.00;105721;1252;1004123;-77
2023/05/27 06:57:03;;;;;;;10.40;4.20;;;;;;;-128.00;-1.00;-1.00;105788;1251;1004401;-77
2023/05/27 06:59:29;;;;;;;9.90;4.00;;;;;;;-128.00;-1.00;-1.00;105582;1251;1004335;-77
2023/05/27 07:01:56;;;;;;;9.60;4.20;;;;;;;-128.00;-1.00;-1.00;105743;1251;1004114;-77
2023/05/27 07:04:22;;;;;;;9.50;4.40;;;;;;;-128.00;-1.00;-1.00;105730;1251;1004653;-77
2023/05/27 07:06:49;;;;;;;9.40;4.40;;;;;;;-128.00;-1.00;-1.00;105680;1251;1003951;-78
2023/05/27 07:09:16;;;;;;;10.90;4.50;;;;;;;-128.00;-1.00;-1.00;105694;1251;1004092;-77
2023/05/27 07:11:42;;;;;;;11.40;4.10;;;;;;;-128.00;-1.00;-1.00;105751;1251;1004782;-77
2023/05/27 07:14:09;;;;;;;9.70;5.30;;;;;;;-128.00;-1.00;-1.00;105693;1251;1003658;-77
2023/05/27 07:16:36;;;;;;;8.70;3.80;;;;;;;-128.00;-1.00;-1.00;105720;1251;1005059;-77
2023/05/27 07:19:03;;;;;;;8.10;4.00;;;;;;;-128.00;-1.00;-1.00;105655;1251;1003821;-77
2023/05/27 07:21:30;;;;;;;10.20;4.10;;;;;;;-128.00;-1.00;-1.00;105578;1251;1004492;-77
2023/05/27 07:23:58;;;;;;;9.20;4.40;;;;;;;-128.00;-1.00;-1.00;105757;1251;1004430;-77
2023/05/27 07:26:27;;;;;;;10.70;4.30;;;;;;;-128.00;-1.00;-1.00;105739;1251;1004399;-77
2023/05/27 07:28:54;;;;;;;10.50;4.50;;;;;;;-128.00;-1.00;-1.00;105727;1251;1044209;-77
2023/05/27 07:31:21;;;;;;;10.80;4.30;;;;;;;-128.00;-1.00;-1.00;105795;1251;1004282;-78
2023/05/27 07:33:47;;;;;;;8.80;4.30;;;;;;;-128.00;-1.00;-1.00;105732;1251;1004319;-76
2023/05/27 07:36:13;;;;;;;9.50;4.70;;;;;;;-128.00;-1.00;-1.00;105793;1251;1004681;-76
2023/05/27 07:38:40;;;;;;;9.50;4.30;;;;;;;-128.00;-1.00;-1.00;105772;1251;1004965;-76
2023/05/27 07:41:06;;;;;;;13.20;4.60;;;;;;;-128.00;-1.00;-1.00;105717;1251;1004353;-76
2023/05/27 07:43:33;;;;;;;13.50;5.00;;;;;;;-128.00;-1.00;-1.00;105731;1251;1003552;-78
2023/05/27 07:46:00;;;;;;;9.00;3.80;;;;;;;-128.00;-1.00;-1.00;105731;1251;1003630;-77
2023/05/27 07:48:27;;;;;;;10.20;4.00;;;;;;;-128.00;-1.00;-1.00;105526;1251;1004139;-77
2023/05/27 07:50:54;;;;;;;11.70;4.50;;;;;;;-128.00;-1.00;-1.00;105746;1251;1004971;-77
2023/05/27 07:53:21;;;;;;;8.30;3.80;;;;;;;-128.00;-1.00;-1.00;105758;1251;1003368;-77
2023/05/27 07:55:48;;;;;;;7.70;3.70;;;;;;;-128.00;-1.00;-1.00;105712;1251;1003594;-77
2023/05/27 07:58:14;;;;;;;9.30;4.10;;;;;;;-128.00;-1.00;-1.00;105757;1251;1004245;-78
2023/05/27 08:00:41;;;;;;;9.80;4.30;;;;;;;-128.00;-1.00;-1.00;105613;1251;1004307;-78
2023/05/27 08:03:07;;;;;;;11.20;4.40;;;;;;;-128.00;-1.00;-1.00;105700;1251;1004268;-78
2023/05/27 08:05:34;;;;;;;9.60;4.30;;;;;;;-128.00;-1.00;-1.00;105762;1251;1003958;-77
2023/05/27 08:08:00;;;;;;;11.90;4.50;;;;;;;-128.00;-1.00;-1.00;105782;1251;1004308;-77
2023/05/27 08:10:27;;;;;;;13.30;5.30;;;;;;;-128.00;-1.00;-1.00;105810;1252;1003840;-77
2023/05/27 08:12:53;;;;;;;10.20;4.40;;;;;;;-128.00;-1.00;-1.00;105849;1251;1003529;-77
2023/05/27 08:15:20;;;;;;;9.50;4.60;;;;;;;-128.00;-1.00;-1.00;105806;1251;1003647;-76
2023/05/27 08:17:46;;;;;;;10.90;4.20;;;;;;;-128.00;-1.00;-1.00;105753;1251;1004570;-76
2023/05/27 08:20:13;;;;;;;9.60;4.00;;;;;;;-128.00;-1.00;-1.00;105528;1251;1004305;-75
2023/05/27 08:22:41;;;;;;;8.10;4.20;;;;;;;-128.00;-1.00;-1.00;105816;1251;1004852;-78
2023/05/27 08:25:07;;;;;;;10.40;4.50;;;;;;;-128.00;-1.00;-1.00;105859;1251;1004478;-77
2023/05/27 08:27:46;;;;;;;10.40;4.60;;;;;;;-128.00;-1.00;-1.00;105759;1251;1004305;-76
2023/05/27 08:30:13;;;;;;;9.00;3.90;;;;;;;-128.00;-1.00;-1.00;105911;1251;1044697;-77
2023/05/27 08:32:41;;;;;;;10.10;4.20;;;;;;;-128.00;-1.00;-1.00;105812;1251;1004073;-78
2023/05/27 08:35:08;;;;;;;12.40;5.10;;;;;;;-128.00;-1.00;-1.00;106072;1251;1004785;-78
2023/05/27 08:37:35;;;;;;;9.70;4.30;;;;;;;-128.00;-1.00;-1.00;105972;1251;1004976;-77
2023/05/27 08:40:01;;;;;;;14.10;4.30;;;;;;;-128.00;-1.00;-1.00;105903;1252;1004227;-77
2023/05/27 08:42:28;;;;;;;7.80;4.40;;;;;;;-128.00;-1.00;-1.00;105731;1251;1003551;-77
2023/05/27 08:44:55;;;;;;;8.90;4.70;;;;;;;-128.00;-1.00;-1.00;105734;1251;1004411;-77
2023/05/27 08:47:22;;;;;;;14.10;5.30;;;;;;;-128.00;-1.00;-1.00;105524;1251;1004196;-78
2023/05/27 08:49:48;;;;;;;11.30;4.20;;;;;;;-128.00;-1.00;-1.00;105761;1251;1004056;-77
2023/05/27 08:52:19;;;;;;;11.00;4.70;;;;;;;-128.00;-1.00;-1.00;105748;1251;1004108;-78
2023/05/27 08:54:47;;;;;;;10.80;5.00;;;;;;;-128.00;-1.00;-1.00;105703;1251;1044227;-77
2023/05/27 08:57:17;;;;;;;10.50;4.50;;;;;;;-128.00;-1.00;-1.00;105754;1251;1004585;-77
2023/05/27 08:59:44;;;;;;;12.20;5.50;;;;;;;-128.00;-1.00;-1.00;105736;1251;1061736;-77
2023/05/27 09:02:12;;;;;;;13.40;4.70;;;;;;;-128.00;-1.00;-1.00;105773;1251;1004045;-77
2023/05/27 09:04:40;;;;;;;11.70;4.60;;;;;;;-128.00;-1.00;-1.00;105764;1251;1004534;-77
2023/05/27 09:07:07;;;;;;;15.10;4.60;;;;;;;-128.00;-1.00;-1.00;105777;1251;1003441;-77
2023/05/27 09:09:34;;;;;;;14.00;5.60;;;;;;;-128.00;-1.00;-1.00;105797;1251;1004168;-77
2023/05/27 09:12:02;;;;;;;8.40;3.90;;;;;;;-128.00;-1.00;-1.00;105744;1251;1005130;-76
2023/05/27 09:14:32;;;;;;;9.50;4.90;;;;;;;-128.00;-1.00;-1.00;105738;1251;1004659;-77
2023/05/27 09:17:05;;;;;;;;;;;;;;;-128.00;-1.00;-1.00;105750;1251;1059950;-77
2023/05/27 09:19:31;;;;;;;10.60;4.80;;;;;;;-128.00;-1.00;-1.00;105733;1251;1044396;-76
2023/05/27 09:21:58;;;;;;;6.70;3.60;;;;;;;-128.00;-1.00;-1.00;105737;1251;1004563;-77
2023/05/27 09:24:26;;;;;;;11.10;4.30;;;;;;;-128.00;-1.00;-1.00;105712;1251;1004855;-76
2023/05/27 09:26:54;;;;;;;10.30;4.10;;;;;;;-128.00;-1.00;-1.00;105722;1251;1004498;-77
2023/05/27 09:29:27;;;;;;;10.60;4.50;;;;;;;-128.00;-1.00;-1.00;105731;1251;1058864;-77
2023/05/27 09:31:57;;;;;;;8.20;4.30;;;;;;;-128.00;-1.00;-1.00;105752;1251;1044220;-77
2023/05/27 09:34:24;;;;;;;9.80;4.30;;;;;;;-128.00;-1.00;-1.00;105726;1251;1047574;-77
2023/05/27 09:36:51;;;;;;;11.30;4.50;;;;;;;-128.00;-1.00;-1.00;105726;1251;1004467;-78
2023/05/27 09:39:20;;;;;;;11.10;4.30;;;;;;;-128.00;-1.00;-1.00;105792;1251;1004118;-77
2023/05/27 09:41:55;;;;;;;12.10;4.20;;;;;;;-128.00;-1.00;-1.00;105748;1251;1058403;-77
2023/05/27 09:44:29;;;;;;;11.20;3.90;;;;;;;-128.00;-1.00;-1.00;105738;1251;1045308;-77
2023/05/27 09:46:58;;;;;;;13.80;5.00;;;;;;;-128.00;-1.00;-1.00;105748;1251;1047781;-77
2023/05/27 09:49:27;;;;;;;12.20;5.30;;;;;;;-128.00;-1.00;-1.00;105719;1251;1004526;-78
2023/05/27 09:51:57;;;;;;;11.80;4.90;;;;;;;-128.00;-1.00;-1.00;105744;1251;1055161;-77
2023/05/27 09:54:24;;;;;;;11.10;5.50;;;;;;;-128.00;-1.00;-1.00;105797;1251;1059306;-77
2023/05/27 09:56:51;;;;;;;11.50;4.40;;;;;;;-128.00;-1.00;-1.00;105729;1251;1004229;-77
2023/05/27 09:59:18;;;;;;;10.70;4.60;;;;;;;-128.00;-1.00;-1.00;105752;1251;1004228;-76
2023/05/27 10:01:47;;;;;;;10.80;4.40;;;;;;;-128.00;-1.00;-1.00;105669;1251;1004234;-77
2023/05/27 10:04:17;;;;;;;9.90;4.40;;;;;;;-128.00;-1.00;-1.00;105734;1251;1004200;-77
2023/05/27 10:06:44;;;;;;;8.90;4.90;;;;;;;-128.00;-1.00;-1.00;105709;1251;1060796;-77
2023/05/27 10:09:13;;;;;;;13.00;5.40;;;;;;;-128.00;-1.00;-1.00;105740;1251;1004544;-77
2023/05/27 10:11:40;;;;;;;10.60;5.00;;;;;;;-128.00;-1.00;-1.00;105730;1251;1004672;-77
2023/05/27 10:14:07;;;;;;;10.40;4.90;;;;;;;-128.00;-1.00;-1.00;105738;1251;1004578;-77
2023/05/27 10:16:34;;;;;;;13.40;5.00;;;;;;;-128.00;-1.00;-1.00;105723;1251;1004074;-76
2023/05/27 10:19:01;;;;;;;15.10;5.30;;;;;;;-128.00;-1.00;-1.00;105762;1251;1004286;-76
2023/05/27 10:21:30;;;;;;;12.60;4.60;;;;;;;-128.00;-1.00;-1.00;105735;1253;1004459;-77
2023/05/27 10:24:01;;;;;;;13.40;5.10;;;;;;;-128.00;-1.00;-1.00;105699;1251;1047226;-77
2023/05/27 10:26:36;;;;;;;11.10;4.80;;;;;;;-128.00;-1.00;-1.00;105801;1251;1062078;-77
2023/05/27 10:29:13;;;;;;;11.30;4.70;;;;;;;-128.00;-1.00;-1.00;105715;1251;1054537;-77
2023/05/27 10:31:47;;;;;;;14.10;4.70;;;;;;;-128.00;-1.00;-1.00;105775;1251;1060334;-77
2023/05/27 10:34:15;;;;;;;10.80;4.40;;;;;;;-128.00;-1.00;-1.00;105774;1251;1044575;-77
2023/05/27 10:36:43;;;;;;;11.30;5.40;;;;;;;-128.00;-1.00;-1.00;105764;1251;1004190;-77
2023/05/27 10:39:13;;;;;;;12.40;4.30;;;;;;;-128.00;-1.00;-1.00;105788;1251;1004397;-76
2023/05/27 10:41:50;;;;;;;11.30;4.30;;;;;;;-128.00;-1.00;-1.00;105754;1251;1055893;-76
2023/05/27 10:44:33;;;;;;;11.90;4.50;;;;;;;-128.00;-1.00;-1.00;105750;1251;1058920;-77
2023/05/27 10:47:03;;;;;;;28.10;8.30;;;;;;;-128.00;-1.00;-1.00;105714;1252;1044258;-77
2023/05/27 10:49:35;;;;;;;10.80;5.30;;;;;;;-128.00;-1.00;-1.00;105731;1251;1046645;-78
2023/05/27 10:52:10;;;;;;;11.70;5.00;;;;;;;-128.00;-1.00;-1.00;105832;1251;1062285;-77
2023/05/27 10:54:37;;;;;;;12.60;4.30;;;;;;;-128.00;-1.00;-1.00;105780;1251;1056141;-76
2023/05/27 10:57:04;;;;;;;14.30;4.30;;;;;;;-128.00;-1.00;-1.00;105764;1251;1004416;-77
2023/05/27 10:59:40;;;;;;;11.40;5.00;;;;;;;-128.00;-1.00;-1.00;105773;1251;1004290;-76
2023/05/27 11:02:07;;;;;;;11.70;4.30;;;;;;;-128.00;-1.00;-1.00;105745;1251;1046800;-77
2023/05/27 11:04:37;;;;;;;8.90;4.20;;;;;;;-128.00;-1.00;-1.00;105709;1251;1003930;-77
2023/05/27 11:07:04;;;;;;;;;;;;;;;-128.00;-1.00;-1.00;105758;1251;1055772;-77
2023/05/27 11:09:31;;;;;;;12.10;4.60;;;;;;;-128.00;-1.00;-1.00;105757;1252;1004261;-77
2023/05/27 11:12:05;;;;;;;10.60;4.50;;;;;;;-128.00;-1.00;-1.00;105740;1251;1004069;-78
2023/05/27 11:14:31;;;;;;;12.00;4.50;;;;;;;-128.00;-1.00;-1.00;105744;1253;1047323;-78